sensor_id;sensor_type;location;lat;lon;timestamp;P1;durP1;ratioP1;P2;durP2;ratioP2
48873;SDS011;35220;46.204;5.220;2022-10-30T00:01:29;12.47;;;4.40;;
48873;SDS011;35220;46.204;5.220;2022-10-30T00:06:29;9.27;;;3.90;;
48873;SDS011;35220;46.204;5.220;2022-10-30T00:11:29;11.50;;;3.40;;
48873;SDS011;35220;46.204;5.220;2022-10-30T00:16:30;8.90;;;3.73;;
48873;SDS011;35220;46.204;5.220;2022-10-30T00:21:30;10.63;;;3.30;;
48873;SDS011;35220;46.204;5.220;2022-10-30T00:26:31;10.83;;;3.70;;
48873;SDS011;35220;46.204;5.220;2022-10-30T00:31:32;7.82;;;3.70;;
48873;SDS011;35220;46.204;5.220;2022-10-30T00:36:32;7.20;;;3.37;;
48873;SDS011;35220;46.204;5.220;2022-10-30T00:41:33;7.87;;;3.63;;
48873;SDS011;35220;46.204;5.220;2022-10-30T00:46:34;7.35;;;3.55;;
48873;SDS011;35220;46.204;5.220;2022-10-30T00:51:38;8.48;;;4.22;;
48873;SDS011;35220;46.204;5.220;2022-10-30T00:56:42;13.38;;;3.97;;
48873;SDS011;35220;46.204;5.220;2022-10-30T01:01:44;8.18;;;3.92;;
48873;SDS011;35220;46.204;5.220;2022-10-30T01:06:46;10.52;;;3.75;;
48873;SDS011;35220;46.204;5.220;2022-10-30T01:11:51;11.57;;;3.70;;
48873;SDS011;35220;46.204;5.220;2022-10-30T01:22:23;10.50;;;3.58;;
48873;SDS011;35220;46.204;5.220;2022-10-30T01:33:22;10.68;;;3.33;;
48873;SDS011;35220;46.204;5.220;2022-10-30T01:38:31;12.35;;;3.08;;
48873;SDS011;35220;46.204;5.220;2022-10-30T01:43:49;11.20;;;3.80;;
48873;SDS011;35220;46.204;5.220;2022-10-30T01:54:58;11.10;;;3.50;;
48873;SDS011;35220;46.204;5.220;2022-10-30T02:05:05;9.13;;;3.53;;
48873;SDS011;35220;46.204;5.220;2022-10-30T02:10:09;9.93;;;3.53;;
48873;SDS011;35220;46.204;5.220;2022-10-30T02:15:10;8.95;;;3.63;;
48873;SDS011;35220;46.204;5.220;2022-10-30T02:20:29;8.77;;;3.97;;
48873;SDS011;35220;46.204;5.220;2022-10-30T02:25:31;9.48;;;3.88;;
48873;SDS011;35220;46.204;5.220;2022-10-30T02:30:31;10.45;;;3.42;;
48873;SDS011;35220;46.204;5.220;2022-10-30T02:35:32;13.50;;;4.05;;
48873;SDS011;35220;46.204;5.220;2022-10-30T02:40:34;13.27;;;3.65;;
48873;SDS011;35220;46.204;5.220;2022-10-30T02:45:34;9.73;;;3.97;;
48873;SDS011;35220;46.204;5.220;2022-10-30T02:50:35;11.90;;;4.40;;
48873;SDS011;35220;46.204;5.220;2022-10-30T02:55:35;8.27;;;3.47;;
48873;SDS011;35220;46.204;5.220;2022-10-30T03:00:35;8.17;;;3.50;;
48873;SDS011;35220;46.204;5.220;2022-10-30T03:05:36;7.77;;;3.33;;
48873;SDS011;35220;46.204;5.220;2022-10-30T03:10:36;6.13;;;3.22;;
48873;SDS011;35220;46.204;5.220;2022-10-30T03:15:36;9.17;;;4.50;;
48873;SDS011;35220;46.204;5.220;2022-10-30T03:20:37;8.30;;;3.50;;
48873;SDS011;35220;46.204;5.220;2022-10-30T03:25:37;9.17;;;3.33;;
48873;SDS011;35220;46.204;5.220;2022-10-30T03:30:38;8.30;;;3.60;;
48873;SDS011;35220;46.204;5.220;2022-10-30T03:35:38;11.20;;;3.95;;
48873;SDS011;35220;46.204;5.220;2022-10-30T03:40:39;7.22;;;3.50;;
48873;SDS011;35220;46.204;5.220;2022-10-30T03:45:44;9.82;;;3.47;;
48873;SDS011;35220;46.204;5.220;2022-10-30T03:50:55;8.00;;;3.42;;
48873;SDS011;35220;46.204;5.220;2022-10-30T03:55:57;9.03;;;4.13;;
48873;SDS011;35220;46.204;5.220;2022-10-30T04:01:02;9.48;;;3.22;;
48873;SDS011;35220;46.204;5.220;2022-10-30T04:06:04;8.07;;;2.90;;
48873;SDS011;35220;46.204;5.220;2022-10-30T04:11:08;6.43;;;3.20;;
48873;SDS011;35220;46.204;5.220;2022-10-30T04:16:08;8.68;;;3.25;;
48873;SDS011;35220;46.204;5.220;2022-10-30T04:21:09;8.00;;;3.60;;
48873;SDS011;35220;46.204;5.220;2022-10-30T04:26:09;6.67;;;3.43;;
48873;SDS011;35220;46.204;5.220;2022-10-30T04:31:10;7.78;;;3.10;;
48873;SDS011;35220;46.204;5.220;2022-10-30T04:36:10;8.47;;;2.63;;
48873;SDS011;35220;46.204;5.220;2022-10-30T04:41:10;9.60;;;3.00;;
48873;SDS011;35220;46.204;5.220;2022-10-30T04:46:11;7.00;;;3.03;;
48873;SDS011;35220;46.204;5.220;2022-10-30T04:51:12;8.20;;;3.97;;
48873;SDS011;35220;46.204;5.220;2022-10-30T04:56:13;7.93;;;2.80;;
48873;SDS011;35220;46.204;5.220;2022-10-30T05:01:13;8.32;;;2.88;;
48873;SDS011;35220;46.204;5.220;2022-10-30T05:06:27;9.03;;;3.67;;
48873;SDS011;35220;46.204;5.220;2022-10-30T05:11:31;6.05;;;2.90;;
48873;SDS011;35220;46.204;5.220;2022-10-30T05:16:32;6.13;;;2.55;;
48873;SDS011;35220;46.204;5.220;2022-10-30T05:21:32;10.55;;;3.05;;
48873;SDS011;35220;46.204;5.220;2022-10-30T05:26:33;6.78;;;2.70;;
48873;SDS011;35220;46.204;5.220;2022-10-30T05:31:33;8.23;;;2.70;;
48873;SDS011;35220;46.204;5.220;2022-10-30T05:36:34;7.25;;;2.97;;
48873;SDS011;35220;46.204;5.220;2022-10-30T05:41:34;7.80;;;2.95;;
48873;SDS011;35220;46.204;5.220;2022-10-30T05:46:34;6.37;;;2.63;;
48873;SDS011;35220;46.204;5.220;2022-10-30T05:51:35;9.10;;;2.97;;
48873;SDS011;35220;46.204;5.220;2022-10-30T05:56:35;6.13;;;2.87;;
48873;SDS011;35220;46.204;5.220;2022-10-30T06:01:36;6.27;;;2.57;;
48873;SDS011;35220;46.204;5.220;2022-10-30T06:06:36;5.17;;;2.47;;
48873;SDS011;35220;46.204;5.220;2022-10-30T06:11:36;6.87;;;3.20;;
48873;SDS011;35220;46.204;5.220;2022-10-30T06:16:37;7.73;;;2.70;;
48873;SDS011;35220;46.204;5.220;2022-10-30T06:21:37;6.70;;;2.45;;
48873;SDS011;35220;46.204;5.220;2022-10-30T06:26:38;8.00;;;2.58;;
48873;SDS011;35220;46.204;5.220;2022-10-30T06:31:38;8.63;;;2.85;;
48873;SDS011;35220;46.204;5.220;2022-10-30T06:36:39;6.35;;;3.25;;
48873;SDS011;35220;46.204;5.220;2022-10-30T06:41:39;7.50;;;2.90;;
48873;SDS011;35220;46.204;5.220;2022-10-30T06:46:40;7.07;;;3.33;;
48873;SDS011;35220;46.204;5.220;2022-10-30T06:51:40;9.03;;;3.00;;
48873;SDS011;35220;46.204;5.220;2022-10-30T06:56:41;8.00;;;2.90;;
48873;SDS011;35220;46.204;5.220;2022-10-30T07:01:41;8.40;;;3.13;;
48873;SDS011;35220;46.204;5.220;2022-10-30T07:06:42;10.23;;;3.40;;
48873;SDS011;35220;46.204;5.220;2022-10-30T07:11:42;8.20;;;3.23;;
48873;SDS011;35220;46.204;5.220;2022-10-30T07:16:44;6.15;;;3.20;;
48873;SDS011;35220;46.204;5.220;2022-10-30T07:21:45;9.63;;;3.10;;
48873;SDS011;35220;46.204;5.220;2022-10-30T07:26:45;5.97;;;3.00;;
48873;SDS011;35220;46.204;5.220;2022-10-30T07:31:46;6.57;;;2.97;;
48873;SDS011;35220;46.204;5.220;2022-10-30T07:36:46;7.55;;;2.90;;
48873;SDS011;35220;46.204;5.220;2022-10-30T07:41:47;9.13;;;3.23;;
48873;SDS011;35220;46.204;5.220;2022-10-30T07:46:49;8.55;;;2.72;;
48873;SDS011;35220;46.204;5.220;2022-10-30T07:51:49;7.73;;;2.70;;
48873;SDS011;35220;46.204;5.220;2022-10-30T07:56:50;7.33;;;3.10;;
48873;SDS011;35220;46.204;5.220;2022-10-30T08:01:50;5.38;;;2.45;;
48873;SDS011;35220;46.204;5.220;2022-10-30T08:06:51;8.15;;;2.80;;
48873;SDS011;35220;46.204;5.220;2022-10-30T08:11:52;7.43;;;2.95;;
48873;SDS011;35220;46.204;5.220;2022-10-30T08:16:52;7.18;;;2.80;;
48873;SDS011;35220;46.204;5.220;2022-10-30T08:21:53;7.90;;;3.70;;
48873;SDS011;35220;46.204;5.220;2022-10-30T08:26:54;8.27;;;3.30;;
48873;SDS011;35220;46.204;5.220;2022-10-30T08:31:55;5.47;;;2.77;;
48873;SDS011;35220;46.204;5.220;2022-10-30T08:36:55;6.57;;;2.60;;
48873;SDS011;35220;46.204;5.220;2022-10-30T08:41:56;6.70;;;2.80;;
48873;SDS011;35220;46.204;5.220;2022-10-30T08:46:58;5.53;;;2.70;;
48873;SDS011;35220;46.204;5.220;2022-10-30T08:51:58;8.80;;;2.90;;
48873;SDS011;35220;46.204;5.220;2022-10-30T08:56:58;5.13;;;2.13;;
48873;SDS011;35220;46.204;5.220;2022-10-30T09:01:59;7.17;;;3.00;;
48873;SDS011;35220;46.204;5.220;2022-10-30T09:07:00;4.03;;;2.63;;
48873;SDS011;35220;46.204;5.220;2022-10-30T09:12:00;7.90;;;2.78;;
48873;SDS011;35220;46.204;5.220;2022-10-30T09:17:01;5.37;;;2.20;;
48873;SDS011;35220;46.204;5.220;2022-10-30T09:22:01;6.23;;;2.30;;
48873;SDS011;35220;46.204;5.220;2022-10-30T09:27:02;4.23;;;2.40;;
48873;SDS011;35220;46.204;5.220;2022-10-30T09:32:02;5.13;;;2.33;;
48873;SDS011;35220;46.204;5.220;2022-10-30T09:37:07;6.15;;;2.58;;
48873;SDS011;35220;46.204;5.220;2022-10-30T09:53:08;6.35;;;2.63;;
48873;SDS011;35220;46.204;5.220;2022-10-30T10:08:49;6.63;;;2.13;;
48873;SDS011;35220;46.204;5.220;2022-10-30T10:14:04;5.57;;;2.20;;
48873;SDS011;35220;46.204;5.220;2022-10-30T10:24:15;2.73;;;2.03;;
48873;SDS011;35220;46.204;5.220;2022-10-30T10:29:31;4.68;;;2.38;;
48873;SDS011;35220;46.204;5.220;2022-10-30T10:34:54;8.52;;;2.03;;
48873;SDS011;35220;46.204;5.220;2022-10-30T10:45:43;7.75;;;2.40;;
48873;SDS011;35220;46.204;5.220;2022-10-30T10:51:14;6.07;;;1.92;;
48873;SDS011;35220;46.204;5.220;2022-10-30T10:56:15;4.97;;;2.17;;
48873;SDS011;35220;46.204;5.220;2022-10-30T11:01:19;6.47;;;2.53;;
48873;SDS011;35220;46.204;5.220;2022-10-30T11:06:28;7.18;;;2.35;;
48873;SDS011;35220;46.204;5.220;2022-10-30T11:11:33;7.40;;;2.13;;
48873;SDS011;35220;46.204;5.220;2022-10-30T11:16:38;7.57;;;2.83;;
48873;SDS011;35220;46.204;5.220;2022-10-30T11:22:07;6.30;;;2.40;;
48873;SDS011;35220;46.204;5.220;2022-10-30T11:27:31;8.18;;;2.40;;
48873;SDS011;35220;46.204;5.220;2022-10-30T11:32:33;5.35;;;2.15;;
48873;SDS011;35220;46.204;5.220;2022-10-30T11:37:34;6.22;;;2.70;;
48873;SDS011;35220;46.204;5.220;2022-10-30T11:42:40;9.02;;;2.63;;
48873;SDS011;35220;46.204;5.220;2022-10-30T11:47:44;6.90;;;2.03;;
48873;SDS011;35220;46.204;5.220;2022-10-30T11:52:45;5.55;;;2.15;;
48873;SDS011;35220;46.204;5.220;2022-10-30T11:57:50;5.38;;;2.30;;
48873;SDS011;35220;46.204;5.220;2022-10-30T12:02:54;5.82;;;2.13;;
48873;SDS011;35220;46.204;5.220;2022-10-30T12:13:06;6.05;;;2.38;;
48873;SDS011;35220;46.204;5.220;2022-10-30T12:18:26;8.73;;;2.50;;
48873;SDS011;35220;46.204;5.220;2022-10-30T12:23:28;7.28;;;2.55;;
48873;SDS011;35220;46.204;5.220;2022-10-30T12:28:29;6.20;;;1.92;;
48873;SDS011;35220;46.204;5.220;2022-10-30T12:44:34;5.20;;;2.45;;
48873;SDS011;35220;46.204;5.220;2022-10-30T12:49:43;6.97;;;2.15;;
48873;SDS011;35220;46.204;5.220;2022-10-30T12:54:56;7.32;;;2.55;;
48873;SDS011;35220;46.204;5.220;2022-10-30T13:00:20;8.80;;;2.40;;
48873;SDS011;35220;46.204;5.220;2022-10-30T13:10:30;6.25;;;2.35;;
48873;SDS011;35220;46.204;5.220;2022-10-30T13:15:39;5.65;;;2.88;;
48873;SDS011;35220;46.204;5.220;2022-10-30T13:21:06;6.88;;;2.78;;
48873;SDS011;35220;46.204;5.220;2022-10-30T13:36:55;8.95;;;3.25;;
48873;SDS011;35220;46.204;5.220;2022-10-30T13:42:05;6.43;;;2.33;;
48873;SDS011;35220;46.204;5.220;2022-10-30T13:52:23;6.10;;;2.35;;
48873;SDS011;35220;46.204;5.220;2022-10-30T13:57:30;9.82;;;2.35;;
48873;SDS011;35220;46.204;5.220;2022-10-30T14:07:42;3.78;;;2.20;;
48873;SDS011;35220;46.204;5.220;2022-10-30T14:28:17;9.07;;;2.13;;
48873;SDS011;35220;46.204;5.220;2022-10-30T14:34:25;4.78;;;1.98;;
48873;SDS011;35220;46.204;5.220;2022-10-30T15:05:41;5.38;;;1.83;;
48873;SDS011;35220;46.204;5.220;2022-10-30T15:11:11;5.70;;;2.00;;
48873;SDS011;35220;46.204;5.220;2022-10-30T15:16:20;6.63;;;2.20;;
48873;SDS011;35220;46.204;5.220;2022-10-30T15:21:21;6.20;;;2.33;;
48873;SDS011;35220;46.204;5.220;2022-10-30T15:26:30;8.05;;;2.45;;
48873;SDS011;35220;46.204;5.220;2022-10-30T15:31:34;11.77;;;2.67;;
48873;SDS011;35220;46.204;5.220;2022-10-30T15:36:39;8.73;;;2.47;;
48873;SDS011;35220;46.204;5.220;2022-10-30T15:41:47;6.32;;;2.47;;
48873;SDS011;35220;46.204;5.220;2022-10-30T15:46:49;5.18;;;2.33;;
48873;SDS011;35220;46.204;5.220;2022-10-30T15:51:52;8.65;;;2.75;;
48873;SDS011;35220;46.204;5.220;2022-10-30T15:56:57;5.68;;;2.20;;
48873;SDS011;35220;46.204;5.220;2022-10-30T16:01:58;10.13;;;2.50;;
48873;SDS011;35220;46.204;5.220;2022-10-30T16:06:59;7.63;;;3.30;;
48873;SDS011;35220;46.204;5.220;2022-10-30T16:12:04;7.72;;;3.60;;
48873;SDS011;35220;46.204;5.220;2022-10-30T16:17:05;8.25;;;2.65;;
48873;SDS011;35220;46.204;5.220;2022-10-30T16:22:12;6.13;;;2.85;;
48873;SDS011;35220;46.204;5.220;2022-10-30T16:27:16;6.50;;;3.03;;
48873;SDS011;35220;46.204;5.220;2022-10-30T16:32:19;5.57;;;2.58;;
48873;SDS011;35220;46.204;5.220;2022-10-30T16:37:23;15.52;;;3.83;;
48873;SDS011;35220;46.204;5.220;2022-10-30T16:42:27;8.23;;;3.03;;
48873;SDS011;35220;46.204;5.220;2022-10-30T16:47:27;7.93;;;3.03;;
48873;SDS011;35220;46.204;5.220;2022-10-30T16:52:34;11.35;;;3.45;;
48873;SDS011;35220;46.204;5.220;2022-10-30T16:57:35;9.23;;;3.08;;
48873;SDS011;35220;46.204;5.220;2022-10-30T17:02:40;8.77;;;2.88;;
48873;SDS011;35220;46.204;5.220;2022-10-30T17:07:56;7.68;;;3.13;;
48873;SDS011;35220;46.204;5.220;2022-10-30T17:18:27;8.95;;;3.10;;
48873;SDS011;35220;46.204;5.220;2022-10-30T17:23:32;11.30;;;3.08;;
48873;SDS011;35220;46.204;5.220;2022-10-30T17:28:34;12.70;;;3.42;;
48873;SDS011;35220;46.204;5.220;2022-10-30T17:33:36;10.07;;;3.17;;
48873;SDS011;35220;46.204;5.220;2022-10-30T17:38:37;8.63;;;3.22;;
48873;SDS011;35220;46.204;5.220;2022-10-30T17:43:56;7.00;;;2.50;;
48873;SDS011;35220;46.204;5.220;2022-10-30T17:48:56;6.82;;;2.83;;
48873;SDS011;35220;46.204;5.220;2022-10-30T17:54:00;6.43;;;2.78;;
48873;SDS011;35220;46.204;5.220;2022-10-30T17:59:00;6.03;;;2.50;;
48873;SDS011;35220;46.204;5.220;2022-10-30T18:04:01;7.73;;;2.93;;
48873;SDS011;35220;46.204;5.220;2022-10-30T18:09:04;8.20;;;3.83;;
48873;SDS011;35220;46.204;5.220;2022-10-30T18:14:05;9.27;;;3.00;;
48873;SDS011;35220;46.204;5.220;2022-10-30T18:19:07;7.97;;;2.70;;
48873;SDS011;35220;46.204;5.220;2022-10-30T18:24:13;7.72;;;2.75;;
48873;SDS011;35220;46.204;5.220;2022-10-30T18:29:14;12.10;;;2.90;;
48873;SDS011;35220;46.204;5.220;2022-10-30T18:34:16;11.20;;;3.05;;
48873;SDS011;35220;46.204;5.220;2022-10-30T18:39:20;8.10;;;2.80;;
48873;SDS011;35220;46.204;5.220;2022-10-30T18:44:20;8.40;;;3.77;;
48873;SDS011;35220;46.204;5.220;2022-10-30T18:49:20;9.27;;;3.10;;
48873;SDS011;35220;46.204;5.220;2022-10-30T18:54:23;7.32;;;2.63;;
48873;SDS011;35220;46.204;5.220;2022-10-30T18:59:23;9.80;;;2.53;;
48873;SDS011;35220;46.204;5.220;2022-10-30T19:04:24;9.75;;;2.58;;
48873;SDS011;35220;46.204;5.220;2022-10-30T19:09:24;8.53;;;2.20;;
48873;SDS011;35220;46.204;5.220;2022-10-30T19:14:24;6.87;;;2.63;;
48873;SDS011;35220;46.204;5.220;2022-10-30T19:19:25;5.80;;;2.67;;
48873;SDS011;35220;46.204;5.220;2022-10-30T19:24:25;11.10;;;3.00;;
48873;SDS011;35220;46.204;5.220;2022-10-30T19:29:26;9.20;;;2.88;;
48873;SDS011;35220;46.204;5.220;2022-10-30T19:34:26;10.67;;;3.63;;
48873;SDS011;35220;46.204;5.220;2022-10-30T19:39:26;8.70;;;2.50;;
48873;SDS011;35220;46.204;5.220;2022-10-30T19:44:27;9.90;;;2.87;;
48873;SDS011;35220;46.204;5.220;2022-10-30T19:49:27;11.20;;;2.93;;
48873;SDS011;35220;46.204;5.220;2022-10-30T19:54:28;9.43;;;2.95;;
48873;SDS011;35220;46.204;5.220;2022-10-30T19:59:28;11.27;;;2.60;;
48873;SDS011;35220;46.204;5.220;2022-10-30T20:04:29;8.83;;;2.70;;
48873;SDS011;35220;46.204;5.220;2022-10-30T20:09:29;6.25;;;2.60;;
48873;SDS011;35220;46.204;5.220;2022-10-30T20:14:30;6.90;;;3.10;;
48873;SDS011;35220;46.204;5.220;2022-10-30T20:19:31;9.32;;;2.92;;
48873;SDS011;35220;46.204;5.220;2022-10-30T20:24:31;8.32;;;3.58;;
48873;SDS011;35220;46.204;5.220;2022-10-30T20:29:32;7.77;;;3.20;;
48873;SDS011;35220;46.204;5.220;2022-10-30T20:34:39;10.85;;;3.63;;
48873;SDS011;35220;46.204;5.220;2022-10-30T20:39:39;11.25;;;2.90;;
48873;SDS011;35220;46.204;5.220;2022-10-30T20:44:39;10.83;;;3.10;;
48873;SDS011;35220;46.204;5.220;2022-10-30T20:49:40;7.50;;;2.63;;
48873;SDS011;35220;46.204;5.220;2022-10-30T20:54:40;6.97;;;2.73;;
48873;SDS011;35220;46.204;5.220;2022-10-30T20:59:41;10.98;;;3.20;;
48873;SDS011;35220;46.204;5.220;2022-10-30T21:04:41;10.27;;;2.60;;
48873;SDS011;35220;46.204;5.220;2022-10-30T21:09:41;10.70;;;3.27;;
48873;SDS011;35220;46.204;5.220;2022-10-30T21:14:42;10.97;;;3.00;;
48873;SDS011;35220;46.204;5.220;2022-10-30T21:19:43;10.90;;;3.20;;
48873;SDS011;35220;46.204;5.220;2022-10-30T21:24:43;11.55;;;3.33;;
48873;SDS011;35220;46.204;5.220;2022-10-30T21:29:43;7.83;;;3.07;;
48873;SDS011;35220;46.204;5.220;2022-10-30T21:34:45;11.07;;;3.65;;
48873;SDS011;35220;46.204;5.220;2022-10-30T21:39:46;6.80;;;3.35;;
48873;SDS011;35220;46.204;5.220;2022-10-30T21:44:46;8.77;;;3.47;;
48873;SDS011;35220;46.204;5.220;2022-10-30T21:49:47;11.13;;;4.00;;
48873;SDS011;35220;46.204;5.220;2022-10-30T21:54:48;11.93;;;3.28;;
48873;SDS011;35220;46.204;5.220;2022-10-30T21:59:48;11.00;;;3.10;;
48873;SDS011;35220;46.204;5.220;2022-10-30T22:04:48;10.90;;;3.30;;
48873;SDS011;35220;46.204;5.220;2022-10-30T22:09:49;9.47;;;3.73;;
48873;SDS011;35220;46.204;5.220;2022-10-30T22:14:49;9.13;;;3.67;;
48873;SDS011;35220;46.204;5.220;2022-10-30T22:19:49;12.33;;;3.80;;
48873;SDS011;35220;46.204;5.220;2022-10-30T22:24:50;10.60;;;3.80;;
48873;SDS011;35220;46.204;5.220;2022-10-30T22:29:50;10.17;;;4.57;;
48873;SDS011;35220;46.204;5.220;2022-10-30T22:34:50;11.77;;;4.18;;
48873;SDS011;35220;46.204;5.220;2022-10-30T22:39:51;9.07;;;4.40;;
48873;SDS011;35220;46.204;5.220;2022-10-30T22:44:51;10.83;;;3.90;;
48873;SDS011;35220;46.204;5.220;2022-10-30T22:49:52;12.77;;;3.72;;
48873;SDS011;35220;46.204;5.220;2022-10-30T22:54:52;12.07;;;4.53;;
48873;SDS011;35220;46.204;5.220;2022-10-30T22:59:53;11.30;;;3.93;;
48873;SDS011;35220;46.204;5.220;2022-10-30T23:04:53;12.10;;;3.90;;
48873;SDS011;35220;46.204;5.220;2022-10-30T23:09:54;11.60;;;3.77;;
48873;SDS011;35220;46.204;5.220;2022-10-30T23:14:54;11.90;;;4.10;;
48873;SDS011;35220;46.204;5.220;2022-10-30T23:19:54;13.20;;;4.68;;
48873;SDS011;35220;46.204;5.220;2022-10-30T23:24:55;14.27;;;4.50;;
48873;SDS011;35220;46.204;5.220;2022-10-30T23:29:55;10.27;;;4.20;;
48873;SDS011;35220;46.204;5.220;2022-10-30T23:34:55;10.83;;;5.30;;
48873;SDS011;35220;46.204;5.220;2022-10-30T23:39:56;10.83;;;5.57;;
48873;SDS011;35220;46.204;5.220;2022-10-30T23:44:56;17.37;;;5.00;;
48873;SDS011;35220;46.204;5.220;2022-10-30T23:49:56;12.50;;;4.67;;
48873;SDS011;35220;46.204;5.220;2022-10-30T23:54:57;10.77;;;4.60;;
48873;SDS011;35220;46.204;5.220;2022-10-30T23:59:57;17.60;;;5.70;;
